sensor_id;sensor_type;location;lat;lon;timestamp;temperature;humidity
77052;SHT30;65980;44.898;8.602;2023-04-25T00:02:26;14.01;60.81
77052;SHT30;65980;44.898;8.602;2023-04-25T00:05:31;13.99;61.56
77052;SHT30;65980;44.898;8.602;2023-04-25T00:08:36;14.13;62.19
77052;SHT30;65980;44.898;8.602;2023-04-25T00:11:40;13.87;64.00
77052;SHT30;65980;44.898;8.602;2023-04-25T00:14:43;14.09;63.54
77052;SHT30;65980;44.898;8.602;2023-04-25T00:17:49;14.04;63.61
77052;SHT30;65980;44.898;8.602;2023-04-25T00:20:52;14.04;62.80
77052;SHT30;65980;44.898;8.602;2023-04-25T00:23:57;13.97;63.01
77052;SHT30;65980;44.898;8.602;2023-04-25T00:27:00;13.96;60.82
77052;SHT30;65980;44.898;8.602;2023-04-25T00:30:05;13.96;60.75
77052;SHT30;65980;44.898;8.602;2023-04-25T00:33:10;14.07;60.40
77052;SHT30;65980;44.898;8.602;2023-04-25T00:36:14;14.04;60.05
77052;SHT30;65980;44.898;8.602;2023-04-25T00:39:18;13.93;58.47
77052;SHT30;65980;44.898;8.602;2023-04-25T00:42:23;13.99;58.08
77052;SHT30;65980;44.898;8.602;2023-04-25T00:45:28;13.96;57.61
77052;SHT30;65980;44.898;8.602;2023-04-25T00:48:34;13.99;56.19
77052;SHT30;65980;44.898;8.602;2023-04-25T00:51:39;13.66;57.09
77052;SHT30;65980;44.898;8.602;2023-04-25T00:54:43;13.45;58.41
77052;SHT30;65980;44.898;8.602;2023-04-25T00:57:47;13.45;59.19
77052;SHT30;65980;44.898;8.602;2023-04-25T01:00:52;13.51;54.18
77052;SHT30;65980;44.898;8.602;2023-04-25T01:03:55;13.38;54.85
77052;SHT30;65980;44.898;8.602;2023-04-25T01:06:59;13.12;54.23
77052;SHT30;65980;44.898;8.602;2023-04-25T01:10:04;12.82;54.46
77052;SHT30;65980;44.898;8.602;2023-04-25T01:13:10;12.52;54.59
77052;SHT30;65980;44.898;8.602;2023-04-25T01:16:13;12.42;54.44
77052;SHT30;65980;44.898;8.602;2023-04-25T01:19:18;12.32;54.45
77052;SHT30;65980;44.898;8.602;2023-04-25T01:22:24;12.14;54.74
77052;SHT30;65980;44.898;8.602;2023-04-25T01:25:29;12.18;56.11
77052;SHT30;65980;44.898;8.602;2023-04-25T01:28:34;12.17;56.03
77052;SHT30;65980;44.898;8.602;2023-04-25T01:31:39;12.49;55.94
77052;SHT30;65980;44.898;8.602;2023-04-25T01:34:44;12.66;54.70
77052;SHT30;65980;44.898;8.602;2023-04-25T01:37:50;12.80;54.52
77052;SHT30;65980;44.898;8.602;2023-04-25T01:41:00;12.83;53.98
77052;SHT30;65980;44.898;8.602;2023-04-25T01:44:04;12.45;55.74
77052;SHT30;65980;44.898;8.602;2023-04-25T01:47:09;12.73;55.32
77052;SHT30;65980;44.898;8.602;2023-04-25T01:50:12;12.82;55.09
77052;SHT30;65980;44.898;8.602;2023-04-25T01:53:17;11.87;58.57
77052;SHT30;65980;44.898;8.602;2023-04-25T01:56:23;12.07;58.85
77052;SHT30;65980;44.898;8.602;2023-04-25T01:59:27;12.44;58.16
77052;SHT30;65980;44.898;8.602;2023-04-25T02:03:00;12.52;58.34
77052;SHT30;65980;44.898;8.602;2023-04-25T02:06:09;12.42;59.74
77052;SHT30;65980;44.898;8.602;2023-04-25T02:09:16;12.14;60.87
77052;SHT30;65980;44.898;8.602;2023-04-25T02:12:29;12.29;59.70
77052;SHT30;65980;44.898;8.602;2023-04-25T02:15:53;12.22;60.31
77052;SHT30;65980;44.898;8.602;2023-04-25T02:18:58;11.72;61.30
77052;SHT30;65980;44.898;8.602;2023-04-25T02:22:03;11.95;60.27
77052;SHT30;65980;44.898;8.602;2023-04-25T02:25:08;11.97;60.67
77052;SHT30;65980;44.898;8.602;2023-04-25T02:28:13;11.63;61.77
77052;SHT30;65980;44.898;8.602;2023-04-25T02:31:18;12.07;61.29
77052;SHT30;65980;44.898;8.602;2023-04-25T02:34:22;12.13;61.15
77052;SHT30;65980;44.898;8.602;2023-04-25T02:37:27;12.03;60.42
77052;SHT30;65980;44.898;8.602;2023-04-25T02:40:30;11.10;63.67
77052;SHT30;65980;44.898;8.602;2023-04-25T02:43:34;10.93;64.70
77052;SHT30;65980;44.898;8.602;2023-04-25T02:46:39;11.12;64.90
77052;SHT30;65980;44.898;8.602;2023-04-25T02:49:44;11.40;64.39
77052;SHT30;65980;44.898;8.602;2023-04-25T02:52:49;11.59;63.21
77052;SHT30;65980;44.898;8.602;2023-04-25T02:55:58;11.31;65.22
77052;SHT30;65980;44.898;8.602;2023-04-25T02:59:02;11.17;67.15
77052;SHT30;65980;44.898;8.602;2023-04-25T03:02:09;10.73;71.22
77052;SHT30;65980;44.898;8.602;2023-04-25T03:05:12;10.84;72.10
77052;SHT30;65980;44.898;8.602;2023-04-25T03:08:17;10.90;71.64
77052;SHT30;65980;44.898;8.602;2023-04-25T03:11:22;11.24;71.04
77052;SHT30;65980;44.898;8.602;2023-04-25T03:14:26;11.04;71.59
77052;SHT30;65980;44.898;8.602;2023-04-25T03:17:30;10.96;73.53
77052;SHT30;65980;44.898;8.602;2023-04-25T03:20:35;10.94;74.16
77052;SHT30;65980;44.898;8.602;2023-04-25T03:23:41;10.83;75.16
77052;SHT30;65980;44.898;8.602;2023-04-25T03:26:46;10.75;76.48
77052;SHT30;65980;44.898;8.602;2023-04-25T03:29:50;10.66;76.77
77052;SHT30;65980;44.898;8.602;2023-04-25T03:32:55;10.80;76.92
77052;SHT30;65980;44.898;8.602;2023-04-25T03:35:58;10.81;78.07
77052;SHT30;65980;44.898;8.602;2023-04-25T03:39:05;10.87;78.64
77052;SHT30;65980;44.898;8.602;2023-04-25T03:42:10;10.77;78.98
77052;SHT30;65980;44.898;8.602;2023-04-25T03:45:14;10.69;79.93
77052;SHT30;65980;44.898;8.602;2023-04-25T03:48:18;10.65;80.37
77052;SHT30;65980;44.898;8.602;2023-04-25T03:51:25;10.53;79.80
77052;SHT30;65980;44.898;8.602;2023-04-25T03:54:30;10.45;80.35
77052;SHT30;65980;44.898;8.602;2023-04-25T03:57:47;10.27;80.66
77052;SHT30;65980;44.898;8.602;2023-04-25T04:00:51;10.25;80.54
77052;SHT30;65980;44.898;8.602;2023-04-25T04:03:56;10.37;80.77
77052;SHT30;65980;44.898;8.602;2023-04-25T04:07:01;10.28;81.53
77052;SHT30;65980;44.898;8.602;2023-04-25T04:10:10;10.28;81.63
77052;SHT30;65980;44.898;8.602;2023-04-25T04:13:16;10.25;81.93
77052;SHT30;65980;44.898;8.602;2023-04-25T04:16:21;10.37;81.32
77052;SHT30;65980;44.898;8.602;2023-04-25T04:19:25;10.34;81.22
77052;SHT30;65980;44.898;8.602;2023-04-25T04:22:40;10.44;81.39
77052;SHT30;65980;44.898;8.602;2023-04-25T04:25:50;10.66;79.51
77052;SHT30;65980;44.898;8.602;2023-04-25T04:28:56;10.60;79.15
77052;SHT30;65980;44.898;8.602;2023-04-25T04:32:16;10.30;79.58
77052;SHT30;65980;44.898;8.602;2023-04-25T04:35:22;10.14;78.54
77052;SHT30;65980;44.898;8.602;2023-04-25T04:38:26;10.17;78.48
77052;SHT30;65980;44.898;8.602;2023-04-25T04:41:33;10.22;78.15
77052;SHT30;65980;44.898;8.602;2023-04-25T04:44:51;10.15;77.62
77052;SHT30;65980;44.898;8.602;2023-04-25T04:48:05;10.00;78.38
77052;SHT30;65980;44.898;8.602;2023-04-25T04:51:27;10.00;78.41
77052;SHT30;65980;44.898;8.602;2023-04-25T04:54:32;9.97;77.79
77052;SHT30;65980;44.898;8.602;2023-04-25T04:57:49;9.84;77.61
77052;SHT30;65980;44.898;8.602;2023-04-25T05:01:19;9.82;76.77
77052;SHT30;65980;44.898;8.602;2023-04-25T05:04:46;9.77;76.27
77052;SHT30;65980;44.898;8.602;2023-04-25T05:08:03;9.67;75.88
77052;SHT30;65980;44.898;8.602;2023-04-25T05:11:31;9.72;75.91
77052;SHT30;65980;44.898;8.602;2023-04-25T05:15:01;9.69;75.44
77052;SHT30;65980;44.898;8.602;2023-04-25T05:18:29;9.91;74.22
77052;SHT30;65980;44.898;8.602;2023-04-25T05:21:52;9.93;74.34
77052;SHT30;65980;44.898;8.602;2023-04-25T05:25:11;10.07;74.38
77052;SHT30;65980;44.898;8.602;2023-04-25T05:28:25;10.12;74.14
77052;SHT30;65980;44.898;8.602;2023-04-25T05:31:55;10.22;73.13
77052;SHT30;65980;44.898;8.602;2023-04-25T05:38:03;10.21;73.15
77052;SHT30;65980;44.898;8.602;2023-04-25T05:41:32;10.24;74.11
77052;SHT30;65980;44.898;8.602;2023-04-25T05:44:59;10.35;74.06
77052;SHT30;65980;44.898;8.602;2023-04-25T05:48:17;10.37;74.07
77052;SHT30;65980;44.898;8.602;2023-04-25T05:51:53;10.30;74.27
77052;SHT30;65980;44.898;8.602;2023-04-25T05:55:33;10.53;73.67
77052;SHT30;65980;44.898;8.602;2023-04-25T05:58:44;10.58;73.80
77052;SHT30;65980;44.898;8.602;2023-04-25T06:01:50;10.75;73.42
77052;SHT30;65980;44.898;8.602;2023-04-25T06:04:56;10.84;73.59
77052;SHT30;65980;44.898;8.602;2023-04-25T06:08:00;10.87;73.44
77052;SHT30;65980;44.898;8.602;2023-04-25T06:11:04;10.89;73.64
77052;SHT30;65980;44.898;8.602;2023-04-25T06:14:08;11.04;73.23
77052;SHT30;65980;44.898;8.602;2023-04-25T06:17:16;11.31;73.10
77052;SHT30;65980;44.898;8.602;2023-04-25T06:20:20;11.38;73.06
77052;SHT30;65980;44.898;8.602;2023-04-25T06:23:26;11.40;73.52
77052;SHT30;65980;44.898;8.602;2023-04-25T06:26:41;11.56;72.84
77052;SHT30;65980;44.898;8.602;2023-04-25T06:29:46;11.55;73.12
77052;SHT30;65980;44.898;8.602;2023-04-25T06:32:53;11.69;72.68
77052;SHT30;65980;44.898;8.602;2023-04-25T06:35:57;11.66;72.84
77052;SHT30;65980;44.898;8.602;2023-04-25T06:39:04;11.84;73.22
77052;SHT30;65980;44.898;8.602;2023-04-25T06:42:10;11.95;73.02
77052;SHT30;65980;44.898;8.602;2023-04-25T06:45:30;12.03;73.07
77052;SHT30;65980;44.898;8.602;2023-04-25T06:48:36;12.17;73.01
77052;SHT30;65980;44.898;8.602;2023-04-25T06:51:42;12.45;72.18
77052;SHT30;65980;44.898;8.602;2023-04-25T06:54:46;12.39;72.83
77052;SHT30;65980;44.898;8.602;2023-04-25T06:58:18;12.97;71.56
77052;SHT30;65980;44.898;8.602;2023-04-25T07:01:48;13.31;70.34
77052;SHT30;65980;44.898;8.602;2023-04-25T07:04:55;13.29;70.97
77052;SHT30;65980;44.898;8.602;2023-04-25T07:08:03;13.17;71.13
77052;SHT30;65980;44.898;8.602;2023-04-25T07:11:07;13.20;72.09
77052;SHT30;65980;44.898;8.602;2023-04-25T07:14:13;13.32;71.22
77052;SHT30;65980;44.898;8.602;2023-04-25T07:17:18;13.34;71.19
77052;SHT30;65980;44.898;8.602;2023-04-25T07:20:23;13.66;70.67
77052;SHT30;65980;44.898;8.602;2023-04-25T07:23:27;13.69;71.11
77052;SHT30;65980;44.898;8.602;2023-04-25T07:26:32;13.63;71.11
77052;SHT30;65980;44.898;8.602;2023-04-25T07:30:03;13.52;71.03
77052;SHT30;65980;44.898;8.602;2023-04-25T07:33:14;13.54;71.70
77052;SHT30;65980;44.898;8.602;2023-04-25T07:36:18;13.69;71.13
77052;SHT30;65980;44.898;8.602;2023-04-25T07:39:23;14.06;69.89
77052;SHT30;65980;44.898;8.602;2023-04-25T07:42:54;14.11;69.57
77052;SHT30;65980;44.898;8.602;2023-04-25T07:46:09;14.32;69.75
77052;SHT30;65980;44.898;8.602;2023-04-25T07:49:14;14.28;70.47
77052;SHT30;65980;44.898;8.602;2023-04-25T07:52:21;14.49;69.42
77052;SHT30;65980;44.898;8.602;2023-04-25T07:55:30;14.65;69.10
77052;SHT30;65980;44.898;8.602;2023-04-25T07:58:46;14.71;69.54
77052;SHT30;65980;44.898;8.602;2023-04-25T08:01:54;15.07;68.26
77052;SHT30;65980;44.898;8.602;2023-04-25T08:04:59;15.66;66.37
77052;SHT30;65980;44.898;8.602;2023-04-25T08:08:03;15.30;66.85
77052;SHT30;65980;44.898;8.602;2023-04-25T08:11:11;15.00;68.52
77052;SHT30;65980;44.898;8.602;2023-04-25T08:14:15;15.06;68.47
77052;SHT30;65980;44.898;8.602;2023-04-25T08:17:21;15.49;67.86
77052;SHT30;65980;44.898;8.602;2023-04-25T08:20:25;15.99;66.45
77052;SHT30;65980;44.898;8.602;2023-04-25T08:23:32;16.25;65.10
77052;SHT30;65980;44.898;8.602;2023-04-25T08:26:41;16.40;64.60
77052;SHT30;65980;44.898;8.602;2023-04-25T08:29:47;16.93;62.24
77052;SHT30;65980;44.898;8.602;2023-04-25T08:32:52;17.04;62.52
77052;SHT30;65980;44.898;8.602;2023-04-25T08:36:18;17.23;62.33
77052;SHT30;65980;44.898;8.602;2023-04-25T08:39:25;17.07;63.30
77052;SHT30;65980;44.898;8.602;2023-04-25T08:42:58;16.41;63.53
77052;SHT30;65980;44.898;8.602;2023-04-25T08:46:04;16.07;64.34
77052;SHT30;65980;44.898;8.602;2023-04-25T08:49:20;15.91;65.16
77052;SHT30;65980;44.898;8.602;2023-04-25T08:52:25;16.08;64.98
77052;SHT30;65980;44.898;8.602;2023-04-25T08:55:35;16.10;64.92
77052;SHT30;65980;44.898;8.602;2023-04-25T08:58:40;16.49;63.38
77052;SHT30;65980;44.898;8.602;2023-04-25T09:01:45;17.04;61.89
77052;SHT30;65980;44.898;8.602;2023-04-25T09:04:56;16.72;62.54
77052;SHT30;65980;44.898;8.602;2023-04-25T09:08:01;17.25;61.10
77052;SHT30;65980;44.898;8.602;2023-04-25T09:11:06;17.51;60.27
77052;SHT30;65980;44.898;8.602;2023-04-25T09:14:21;17.69;60.73
77052;SHT30;65980;44.898;8.602;2023-04-25T09:17:56;17.55;59.96
77052;SHT30;65980;44.898;8.602;2023-04-25T09:21:09;17.94;58.96
77052;SHT30;65980;44.898;8.602;2023-04-25T09:24:13;18.16;58.79
77052;SHT30;65980;44.898;8.602;2023-04-25T09:27:20;18.17;57.59
77052;SHT30;65980;44.898;8.602;2023-04-25T09:30:30;18.31;57.82
77052;SHT30;65980;44.898;8.602;2023-04-25T09:33:50;18.80;57.27
77052;SHT30;65980;44.898;8.602;2023-04-25T09:37:03;19.30;55.05
77052;SHT30;65980;44.898;8.602;2023-04-25T09:40:40;20.06;52.94
77052;SHT30;65980;44.898;8.602;2023-04-25T09:43:50;20.13;52.33
77052;SHT30;65980;44.898;8.602;2023-04-25T09:46:55;20.04;52.29
77052;SHT30;65980;44.898;8.602;2023-04-25T09:50:03;19.30;54.41
77052;SHT30;65980;44.898;8.602;2023-04-25T09:53:18;19.45;52.90
77052;SHT30;65980;44.898;8.602;2023-04-25T09:56:37;20.80;49.94
77052;SHT30;65980;44.898;8.602;2023-04-25T09:59:46;22.55;46.19
77052;SHT30;65980;44.898;8.602;2023-04-25T10:02:50;24.65;42.11
77052;SHT30;65980;44.898;8.602;2023-04-25T10:06:20;26.99;37.37
77052;SHT30;65980;44.898;8.602;2023-04-25T10:09:27;28.98;33.85
77052;SHT30;65980;44.898;8.602;2023-04-25T10:12:35;27.51;36.39
77052;SHT30;65980;44.898;8.602;2023-04-25T10:15:39;29.06;32.99
77052;SHT30;65980;44.898;8.602;2023-04-25T10:18:44;28.95;33.92
77052;SHT30;65980;44.898;8.602;2023-04-25T10:21:50;25.95;39.51
77052;SHT30;65980;44.898;8.602;2023-04-25T10:24:55;29.68;33.42
77052;SHT30;65980;44.898;8.602;2023-04-25T10:28:00;26.48;38.43
77052;SHT30;65980;44.898;8.602;2023-04-25T10:31:07;26.88;38.42
77052;SHT30;65980;44.898;8.602;2023-04-25T10:34:13;31.28;31.43
77052;SHT30;65980;44.898;8.602;2023-04-25T10:37:22;31.77;30.34
77052;SHT30;65980;44.898;8.602;2023-04-25T10:40:26;33.11;28.19
77052;SHT30;65980;44.898;8.602;2023-04-25T10:46:35;30.28;32.14
77052;SHT30;65980;44.898;8.602;2023-04-25T10:49:43;28.54;34.67
77052;SHT30;65980;44.898;8.602;2023-04-25T10:52:49;26.60;37.53
77052;SHT30;65980;44.898;8.602;2023-04-25T10:59:23;27.70;34.12
77052;SHT30;65980;44.898;8.602;2023-04-25T11:02:30;28.13;33.31
77052;SHT30;65980;44.898;8.602;2023-04-25T11:05:34;27.42;35.88
77052;SHT30;65980;44.898;8.602;2023-04-25T11:08:57;24.33;39.47
77052;SHT30;65980;44.898;8.602;2023-04-25T11:12:04;23.99;40.00
77052;SHT30;65980;44.898;8.602;2023-04-25T11:15:09;23.66;41.48
77052;SHT30;65980;44.898;8.602;2023-04-25T11:18:17;23.27;41.36
77052;SHT30;65980;44.898;8.602;2023-04-25T11:21:27;22.33;37.67
77052;SHT30;65980;44.898;8.602;2023-04-25T11:24:34;21.07;42.21
77052;SHT30;65980;44.898;8.602;2023-04-25T11:27:58;21.07;42.81
77052;SHT30;65980;44.898;8.602;2023-04-25T11:31:05;20.85;42.46
77052;SHT30;65980;44.898;8.602;2023-04-25T11:34:10;21.23;41.65
77052;SHT30;65980;44.898;8.602;2023-04-25T11:37:15;21.55;40.82
77052;SHT30;65980;44.898;8.602;2023-04-25T11:40:20;21.62;36.72
77052;SHT30;65980;44.898;8.602;2023-04-25T11:43:25;21.61;36.71
77052;SHT30;65980;44.898;8.602;2023-04-25T11:46:29;21.96;36.80
77052;SHT30;65980;44.898;8.602;2023-04-25T11:49:36;21.58;34.38
77052;SHT30;65980;44.898;8.602;2023-04-25T11:52:46;21.02;35.69
77052;SHT30;65980;44.898;8.602;2023-04-25T11:55:51;21.34;36.65
77052;SHT30;65980;44.898;8.602;2023-04-25T11:58:58;21.88;36.31
77052;SHT30;65980;44.898;8.602;2023-04-25T12:02:04;22.36;36.58
77052;SHT30;65980;44.898;8.602;2023-04-25T12:05:11;22.00;39.48
77052;SHT30;65980;44.898;8.602;2023-04-25T12:08:16;22.36;37.81
77052;SHT30;65980;44.898;8.602;2023-04-25T12:11:20;22.10;37.16
77052;SHT30;65980;44.898;8.602;2023-04-25T12:14:25;21.68;37.84
77052;SHT30;65980;44.898;8.602;2023-04-25T12:17:33;21.94;38.51
77052;SHT30;65980;44.898;8.602;2023-04-25T12:20:37;22.34;40.75
77052;SHT30;65980;44.898;8.602;2023-04-25T12:23:42;22.51;41.69
77052;SHT30;65980;44.898;8.602;2023-04-25T12:26:50;22.36;40.28
77052;SHT30;65980;44.898;8.602;2023-04-25T12:29:54;22.30;39.48
77052;SHT30;65980;44.898;8.602;2023-04-25T12:32:59;22.48;38.65
77052;SHT30;65980;44.898;8.602;2023-04-25T12:36:03;22.41;38.67
77052;SHT30;65980;44.898;8.602;2023-04-25T12:39:15;22.37;40.71
77052;SHT30;65980;44.898;8.602;2023-04-25T12:42:20;22.31;37.74
77052;SHT30;65980;44.898;8.602;2023-04-25T12:45:23;22.41;37.91
77052;SHT30;65980;44.898;8.602;2023-04-25T12:48:28;22.48;38.55
77052;SHT30;65980;44.898;8.602;2023-04-25T12:51:32;22.21;40.70
77052;SHT30;65980;44.898;8.602;2023-04-25T12:54:36;22.59;39.50
77052;SHT30;65980;44.898;8.602;2023-04-25T12:57:39;22.91;37.88
77052;SHT30;65980;44.898;8.602;2023-04-25T13:00:44;22.85;38.50
77052;SHT30;65980;44.898;8.602;2023-04-25T13:03:49;22.76;38.48
77052;SHT30;65980;44.898;8.602;2023-04-25T13:06:54;22.45;34.25
77052;SHT30;65980;44.898;8.602;2023-04-25T13:09:59;22.54;36.87
77052;SHT30;65980;44.898;8.602;2023-04-25T13:13:07;22.77;38.24
77052;SHT30;65980;44.898;8.602;2023-04-25T13:16:12;22.88;39.18
77052;SHT30;65980;44.898;8.602;2023-04-25T13:19:18;22.69;40.87
77052;SHT30;65980;44.898;8.602;2023-04-25T13:22:22;22.77;40.25
77052;SHT30;65980;44.898;8.602;2023-04-25T13:25:26;21.88;40.32
77052;SHT30;65980;44.898;8.602;2023-04-25T13:28:30;22.34;39.87
77052;SHT30;65980;44.898;8.602;2023-04-25T13:31:35;22.93;37.22
77052;SHT30;65980;44.898;8.602;2023-04-25T13:34:40;22.52;38.06
77052;SHT30;65980;44.898;8.602;2023-04-25T13:37:43;22.04;37.05
77052;SHT30;65980;44.898;8.602;2023-04-25T13:40:48;22.10;35.92
77052;SHT30;65980;44.898;8.602;2023-04-25T13:43:53;22.47;35.89
77052;SHT30;65980;44.898;8.602;2023-04-25T13:46:57;22.30;36.81
77052;SHT30;65980;44.898;8.602;2023-04-25T13:50:00;22.31;35.12
77052;SHT30;65980;44.898;8.602;2023-04-25T13:53:07;22.54;36.73
77052;SHT30;65980;44.898;8.602;2023-04-25T13:56:11;22.52;35.26
77052;SHT30;65980;44.898;8.602;2023-04-25T13:59:16;22.83;34.73
77052;SHT30;65980;44.898;8.602;2023-04-25T14:02:21;22.49;33.91
77052;SHT30;65980;44.898;8.602;2023-04-25T14:05:26;22.31;33.93
77052;SHT30;65980;44.898;8.602;2023-04-25T14:08:30;22.64;34.32
77052;SHT30;65980;44.898;8.602;2023-04-25T14:11:34;22.61;33.86
77052;SHT30;65980;44.898;8.602;2023-04-25T14:14:37;22.73;33.14
77052;SHT30;65980;44.898;8.602;2023-04-25T14:17:42;22.45;32.52
77052;SHT30;65980;44.898;8.602;2023-04-25T14:20:47;22.98;34.93
77052;SHT30;65980;44.898;8.602;2023-04-25T14:23:52;23.21;33.26
77052;SHT30;65980;44.898;8.602;2023-04-25T14:26:55;23.28;30.52
77052;SHT30;65980;44.898;8.602;2023-04-25T14:30:00;23.17;31.99
77052;SHT30;65980;44.898;8.602;2023-04-25T14:33:04;23.43;31.62
77052;SHT30;65980;44.898;8.602;2023-04-25T14:36:07;23.34;30.83
77052;SHT30;65980;44.898;8.602;2023-04-25T14:39:12;23.59;30.07
77052;SHT30;65980;44.898;8.602;2023-04-25T14:42:17;23.16;31.40
77052;SHT30;65980;44.898;8.602;2023-04-25T14:45:22;23.48;30.58
77052;SHT30;65980;44.898;8.602;2023-04-25T14:48:26;23.53;30.77
77052;SHT30;65980;44.898;8.602;2023-04-25T14:51:30;22.49;31.92
77052;SHT30;65980;44.898;8.602;2023-04-25T14:54:34;22.77;32.07
77052;SHT30;65980;44.898;8.602;2023-04-25T14:57:39;23.00;32.47
77052;SHT30;65980;44.898;8.602;2023-04-25T15:00:43;23.27;31.68
77052;SHT30;65980;44.898;8.602;2023-04-25T15:03:48;23.19;31.14
77052;SHT30;65980;44.898;8.602;2023-04-25T15:06:52;23.09;31.88
77052;SHT30;65980;44.898;8.602;2023-04-25T15:09:56;22.96;32.59
77052;SHT30;65980;44.898;8.602;2023-04-25T15:13:02;22.61;32.62
77052;SHT30;65980;44.898;8.602;2023-04-25T15:16:06;22.75;31.53
77052;SHT30;65980;44.898;8.602;2023-04-25T15:19:12;23.07;33.36
77052;SHT30;65980;44.898;8.602;2023-04-25T15:22:16;23.10;31.79
77052;SHT30;65980;44.898;8.602;2023-04-25T15:25:19;23.06;31.79
77052;SHT30;65980;44.898;8.602;2023-04-25T15:28:24;23.13;31.44
77052;SHT30;65980;44.898;8.602;2023-04-25T15:31:28;23.81;28.20
77052;SHT30;65980;44.898;8.602;2023-04-25T15:34:33;24.51;27.33
77052;SHT30;65980;44.898;8.602;2023-04-25T15:37:37;24.76;26.82
77052;SHT30;65980;44.898;8.602;2023-04-25T15:40:41;24.14;28.60
77052;SHT30;65980;44.898;8.602;2023-04-25T15:43:46;23.37;35.62
77052;SHT30;65980;44.898;8.602;2023-04-25T15:46:49;22.37;39.40
77052;SHT30;65980;44.898;8.602;2023-04-25T15:49:54;22.12;40.49
77052;SHT30;65980;44.898;8.602;2023-04-25T15:52:59;21.94;40.61
77052;SHT30;65980;44.898;8.602;2023-04-25T15:56:02;21.45;41.77
77052;SHT30;65980;44.898;8.602;2023-04-25T15:59:07;21.19;42.31
77052;SHT30;65980;44.898;8.602;2023-04-25T16:02:12;20.61;43.00
77052;SHT30;65980;44.898;8.602;2023-04-25T16:05:17;20.83;42.89
77052;SHT30;65980;44.898;8.602;2023-04-25T16:08:21;20.79;43.56
77052;SHT30;65980;44.898;8.602;2023-04-25T16:11:26;20.95;43.16
77052;SHT30;65980;44.898;8.602;2023-04-25T16:14:31;20.86;43.20
77052;SHT30;65980;44.898;8.602;2023-04-25T16:17:35;20.90;43.46
77052;SHT30;65980;44.898;8.602;2023-04-25T16:20:39;20.83;43.07
77052;SHT30;65980;44.898;8.602;2023-04-25T16:23:43;21.44;41.91
77052;SHT30;65980;44.898;8.602;2023-04-25T16:26:48;21.40;41.97
77052;SHT30;65980;44.898;8.602;2023-04-25T16:29:51;21.58;41.74
77052;SHT30;65980;44.898;8.602;2023-04-25T16:32:56;21.35;41.68
77052;SHT30;65980;44.898;8.602;2023-04-25T16:36:01;21.13;41.78
77052;SHT30;65980;44.898;8.602;2023-04-25T16:39:06;21.06;42.42
77052;SHT30;65980;44.898;8.602;2023-04-25T16:42:12;20.97;42.08
77052;SHT30;65980;44.898;8.602;2023-04-25T16:45:17;20.95;42.35
77052;SHT30;65980;44.898;8.602;2023-04-25T16:48:22;20.99;41.83
77052;SHT30;65980;44.898;8.602;2023-04-25T16:51:26;20.87;42.45
77052;SHT30;65980;44.898;8.602;2023-04-25T16:54:31;20.87;42.06
77052;SHT30;65980;44.898;8.602;2023-04-25T16:57:35;21.10;41.93
77052;SHT30;65980;44.898;8.602;2023-04-25T17:00:40;21.17;41.05
77052;SHT30;65980;44.898;8.602;2023-04-25T17:03:45;21.23;41.24
77052;SHT30;65980;44.898;8.602;2023-04-25T17:06:49;21.23;41.19
77052;SHT30;65980;44.898;8.602;2023-04-25T17:09:53;21.28;40.84
77052;SHT30;65980;44.898;8.602;2023-04-25T17:12:58;21.48;40.12
77052;SHT30;65980;44.898;8.602;2023-04-25T17:16:01;21.55;39.48
77052;SHT30;65980;44.898;8.602;2023-04-25T17:19:05;21.54;39.76
77052;SHT30;65980;44.898;8.602;2023-04-25T17:22:11;21.19;40.51
77052;SHT30;65980;44.898;8.602;2023-04-25T17:25:14;21.23;39.70
77052;SHT30;65980;44.898;8.602;2023-04-25T17:28:18;21.21;39.95
77052;SHT30;65980;44.898;8.602;2023-04-25T17:31:22;21.06;39.29
77052;SHT30;65980;44.898;8.602;2023-04-25T17:34:26;20.82;40.22
77052;SHT30;65980;44.898;8.602;2023-04-25T17:37:31;20.79;40.24
77052;SHT30;65980;44.898;8.602;2023-04-25T17:40:36;20.75;40.16
77052;SHT30;65980;44.898;8.602;2023-04-25T17:43:40;20.62;41.30
77052;SHT30;65980;44.898;8.602;2023-04-25T17:46:44;20.53;41.54
77052;SHT30;65980;44.898;8.602;2023-04-25T17:49:49;20.44;42.12
77052;SHT30;65980;44.898;8.602;2023-04-25T17:52:52;20.40;42.28
77052;SHT30;65980;44.898;8.602;2023-04-25T17:55:56;20.42;41.55
77052;SHT30;65980;44.898;8.602;2023-04-25T17:59:00;20.34;41.84
77052;SHT30;65980;44.898;8.602;2023-04-25T18:02:04;20.23;42.04
77052;SHT30;65980;44.898;8.602;2023-04-25T18:05:08;20.16;42.61
77052;SHT30;65980;44.898;8.602;2023-04-25T18:08:13;19.92;43.80
77052;SHT30;65980;44.898;8.602;2023-04-25T18:11:17;19.92;44.16
77052;SHT30;65980;44.898;8.602;2023-04-25T18:14:21;19.86;44.33
77052;SHT30;65980;44.898;8.602;2023-04-25T18:17:26;19.82;44.50
77052;SHT30;65980;44.898;8.602;2023-04-25T18:20:29;19.72;44.67
77052;SHT30;65980;44.898;8.602;2023-04-25T18:23:34;19.62;45.14
77052;SHT30;65980;44.898;8.602;2023-04-25T18:26:39;19.48;45.55
77052;SHT30;65980;44.898;8.602;2023-04-25T18:29:44;19.39;46.04
77052;SHT30;65980;44.898;8.602;2023-04-25T18:32:47;19.38;46.51
77052;SHT30;65980;44.898;8.602;2023-04-25T18:35:52;19.25;46.79
77052;SHT30;65980;44.898;8.602;2023-04-25T18:38:59;19.07;47.27
77052;SHT30;65980;44.898;8.602;2023-04-25T18:42:04;19.03;47.64
77052;SHT30;65980;44.898;8.602;2023-04-25T18:45:08;19.00;47.57
77052;SHT30;65980;44.898;8.602;2023-04-25T18:48:13;18.83;48.05
77052;SHT30;65980;44.898;8.602;2023-04-25T18:51:21;18.75;47.96
77052;SHT30;65980;44.898;8.602;2023-04-25T18:54:25;18.76;48.28
77052;SHT30;65980;44.898;8.602;2023-04-25T18:57:29;18.72;48.27
77052;SHT30;65980;44.898;8.602;2023-04-25T19:00:34;18.61;47.98
77052;SHT30;65980;44.898;8.602;2023-04-25T19:03:37;18.72;47.56
77052;SHT30;65980;44.898;8.602;2023-04-25T19:06:42;18.49;48.10
77052;SHT30;65980;44.898;8.602;2023-04-25T19:09:46;18.34;48.41
77052;SHT30;65980;44.898;8.602;2023-04-25T19:12:50;18.38;48.96
77052;SHT30;65980;44.898;8.602;2023-04-25T19:15:55;18.01;49.38
77052;SHT30;65980;44.898;8.602;2023-04-25T19:19:01;17.78;50.77
77052;SHT30;65980;44.898;8.602;2023-04-25T19:22:05;17.55;52.19
77052;SHT30;65980;44.898;8.602;2023-04-25T19:25:10;17.73;51.08
77052;SHT30;65980;44.898;8.602;2023-04-25T19:28:15;17.65;51.88
77052;SHT30;65980;44.898;8.602;2023-04-25T19:31:19;17.59;51.58
77052;SHT30;65980;44.898;8.602;2023-04-25T19:34:24;17.41;52.25
77052;SHT30;65980;44.898;8.602;2023-04-25T19:37:29;17.63;51.04
77052;SHT30;65980;44.898;8.602;2023-04-25T19:40:33;17.53;51.58
77052;SHT30;65980;44.898;8.602;2023-04-25T19:43:40;17.36;52.43
77052;SHT30;65980;44.898;8.602;2023-04-25T19:46:44;17.14;53.53
77052;SHT30;65980;44.898;8.602;2023-04-25T19:49:49;16.97;55.40
77052;SHT30;65980;44.898;8.602;2023-04-25T19:52:54;16.89;55.96